sensor_id;sensor_type;location;lat;lon;timestamp;P1;durP1;ratioP1;P2;durP2;ratioP2
14817;SDS011;7500;57.698;11.986;2023-07-13T00:00:29;6.40;;;2.47;;
14817;SDS011;7500;57.698;11.986;2023-07-13T00:02:57;6.13;;;2.23;;
14817;SDS011;7500;57.698;11.986;2023-07-13T00:05:24;8.73;;;2.40;;
14817;SDS011;7500;57.698;11.986;2023-07-13T00:07:52;7.77;;;2.40;;
14817;SDS011;7500;57.698;11.986;2023-07-13T00:10:19;9.53;;;2.33;;
14817;SDS011;7500;57.698;11.986;2023-07-13T00:12:46;8.33;;;2.43;;
14817;SDS011;7500;57.698;11.986;2023-07-13T00:15:14;5.90;;;2.30;;
14817;SDS011;7500;57.698;11.986;2023-07-13T00:17:41;8.43;;;2.47;;
14817;SDS011;7500;57.698;11.986;2023-07-13T00:20:09;9.73;;;2.57;;
14817;SDS011;7500;57.698;11.986;2023-07-13T00:22:36;8.47;;;2.80;;
14817;SDS011;7500;57.698;11.986;2023-07-13T00:25:05;6.77;;;2.10;;
14817;SDS011;7500;57.698;11.986;2023-07-13T00:27:31;12.30;;;2.73;;
14817;SDS011;7500;57.698;11.986;2023-07-13T00:29:58;9.70;;;2.50;;
14817;SDS011;7500;57.698;11.986;2023-07-13T00:32:25;7.63;;;2.57;;
14817;SDS011;7500;57.698;11.986;2023-07-13T00:34:51;5.73;;;2.10;;
14817;SDS011;7500;57.698;11.986;2023-07-13T00:37:18;8.10;;;2.93;;
14817;SDS011;7500;57.698;11.986;2023-07-13T00:39:44;7.00;;;2.20;;
14817;SDS011;7500;57.698;11.986;2023-07-13T00:42:12;5.83;;;2.20;;
14817;SDS011;7500;57.698;11.986;2023-07-13T00:44:39;7.83;;;2.33;;
14817;SDS011;7500;57.698;11.986;2023-07-13T00:47:06;12.60;;;2.90;;
14817;SDS011;7500;57.698;11.986;2023-07-13T00:49:33;8.17;;;2.27;;
14817;SDS011;7500;57.698;11.986;2023-07-13T00:52:02;9.83;;;2.63;;
14817;SDS011;7500;57.698;11.986;2023-07-13T00:54:30;6.73;;;2.57;;
14817;SDS011;7500;57.698;11.986;2023-07-13T00:56:59;9.90;;;2.40;;
14817;SDS011;7500;57.698;11.986;2023-07-13T00:59:28;9.57;;;2.63;;
14817;SDS011;7500;57.698;11.986;2023-07-13T01:01:55;6.77;;;2.30;;
14817;SDS011;7500;57.698;11.986;2023-07-13T01:04:23;9.07;;;2.33;;
14817;SDS011;7500;57.698;11.986;2023-07-13T01:06:50;6.30;;;2.17;;
14817;SDS011;7500;57.698;11.986;2023-07-13T01:09:16;8.77;;;2.80;;
14817;SDS011;7500;57.698;11.986;2023-07-13T01:11:44;6.90;;;2.50;;
14817;SDS011;7500;57.698;11.986;2023-07-13T01:14:11;6.20;;;2.50;;
14817;SDS011;7500;57.698;11.986;2023-07-13T01:16:40;8.63;;;2.83;;
14817;SDS011;7500;57.698;11.986;2023-07-13T01:19:11;8.50;;;2.83;;
14817;SDS011;7500;57.698;11.986;2023-07-13T01:21:41;8.97;;;2.77;;
14817;SDS011;7500;57.698;11.986;2023-07-13T01:24:08;8.80;;;2.70;;
14817;SDS011;7500;57.698;11.986;2023-07-13T01:26:34;8.80;;;3.20;;
14817;SDS011;7500;57.698;11.986;2023-07-13T01:29:01;11.80;;;2.97;;
14817;SDS011;7500;57.698;11.986;2023-07-13T01:31:27;5.10;;;2.60;;
14817;SDS011;7500;57.698;11.986;2023-07-13T01:33:54;8.37;;;3.23;;
14817;SDS011;7500;57.698;11.986;2023-07-13T01:36:22;11.60;;;3.13;;
14817;SDS011;7500;57.698;11.986;2023-07-13T01:38:50;5.60;;;2.70;;
14817;SDS011;7500;57.698;11.986;2023-07-13T01:41:17;10.67;;;3.00;;
14817;SDS011;7500;57.698;11.986;2023-07-13T01:43:43;6.80;;;2.80;;
14817;SDS011;7500;57.698;11.986;2023-07-13T01:46:10;8.33;;;2.70;;
14817;SDS011;7500;57.698;11.986;2023-07-13T01:48:37;8.83;;;2.90;;
14817;SDS011;7500;57.698;11.986;2023-07-13T01:51:03;6.97;;;2.73;;
14817;SDS011;7500;57.698;11.986;2023-07-13T01:53:30;6.80;;;2.60;;
14817;SDS011;7500;57.698;11.986;2023-07-13T01:55:58;8.90;;;2.73;;
14817;SDS011;7500;57.698;11.986;2023-07-13T01:58:24;10.60;;;2.70;;
14817;SDS011;7500;57.698;11.986;2023-07-13T02:00:51;7.77;;;2.77;;
14817;SDS011;7500;57.698;11.986;2023-07-13T02:03:18;5.27;;;2.83;;
14817;SDS011;7500;57.698;11.986;2023-07-13T02:05:45;8.73;;;2.80;;
14817;SDS011;7500;57.698;11.986;2023-07-13T02:08:11;10.60;;;3.57;;
14817;SDS011;7500;57.698;11.986;2023-07-13T02:10:38;6.70;;;2.43;;
14817;SDS011;7500;57.698;11.986;2023-07-13T02:13:06;9.07;;;2.90;;
14817;SDS011;7500;57.698;11.986;2023-07-13T02:15:33;6.83;;;2.20;;
14817;SDS011;7500;57.698;11.986;2023-07-13T02:18:00;7.10;;;2.77;;
14817;SDS011;7500;57.698;11.986;2023-07-13T02:20:28;7.40;;;2.80;;
14817;SDS011;7500;57.698;11.986;2023-07-13T02:22:55;6.80;;;2.90;;
14817;SDS011;7500;57.698;11.986;2023-07-13T02:25:21;9.13;;;2.90;;
14817;SDS011;7500;57.698;11.986;2023-07-13T02:27:50;13.17;;;3.03;;
14817;SDS011;7500;57.698;11.986;2023-07-13T02:30:18;10.97;;;2.70;;
14817;SDS011;7500;57.698;11.986;2023-07-13T02:32:45;9.80;;;2.90;;
14817;SDS011;7500;57.698;11.986;2023-07-13T02:35:11;9.30;;;3.13;;
14817;SDS011;7500;57.698;11.986;2023-07-13T02:37:38;5.87;;;2.77;;
14817;SDS011;7500;57.698;11.986;2023-07-13T02:40:05;9.57;;;2.97;;
14817;SDS011;7500;57.698;11.986;2023-07-13T02:42:33;8.47;;;2.80;;
14817;SDS011;7500;57.698;11.986;2023-07-13T02:45:00;9.50;;;3.50;;
14817;SDS011;7500;57.698;11.986;2023-07-13T02:47:28;11.27;;;2.73;;
14817;SDS011;7500;57.698;11.986;2023-07-13T02:49:54;9.07;;;2.90;;
14817;SDS011;7500;57.698;11.986;2023-07-13T02:52:21;6.17;;;2.70;;
14817;SDS011;7500;57.698;11.986;2023-07-13T02:54:48;14.10;;;3.13;;
14817;SDS011;7500;57.698;11.986;2023-07-13T02:57:14;7.00;;;2.77;;
14817;SDS011;7500;57.698;11.986;2023-07-13T02:59:41;7.50;;;3.10;;
14817;SDS011;7500;57.698;11.986;2023-07-13T03:02:07;6.40;;;3.00;;
14817;SDS011;7500;57.698;11.986;2023-07-13T03:04:36;9.63;;;2.70;;
14817;SDS011;7500;57.698;11.986;2023-07-13T03:07:03;8.53;;;3.37;;
14817;SDS011;7500;57.698;11.986;2023-07-13T03:09:30;10.37;;;3.20;;
14817;SDS011;7500;57.698;11.986;2023-07-13T03:11:56;7.80;;;2.67;;
14817;SDS011;7500;57.698;11.986;2023-07-13T03:14:23;6.03;;;3.03;;
14817;SDS011;7500;57.698;11.986;2023-07-13T03:16:49;9.63;;;2.90;;
14817;SDS011;7500;57.698;11.986;2023-07-13T03:19:18;8.27;;;2.93;;
14817;SDS011;7500;57.698;11.986;2023-07-13T03:21:46;12.20;;;3.00;;
14817;SDS011;7500;57.698;11.986;2023-07-13T03:24:12;10.43;;;3.87;;
14817;SDS011;7500;57.698;11.986;2023-07-13T03:26:39;9.53;;;3.20;;
14817;SDS011;7500;57.698;11.986;2023-07-13T03:29:05;12.53;;;3.73;;
14817;SDS011;7500;57.698;11.986;2023-07-13T03:31:33;12.63;;;3.20;;
14817;SDS011;7500;57.698;11.986;2023-07-13T03:34:00;9.33;;;3.07;;
14817;SDS011;7500;57.698;11.986;2023-07-13T03:36:27;9.53;;;3.20;;
14817;SDS011;7500;57.698;11.986;2023-07-13T03:38:58;12.73;;;3.73;;
14817;SDS011;7500;57.698;11.986;2023-07-13T03:41:25;9.10;;;3.50;;
14817;SDS011;7500;57.698;11.986;2023-07-13T03:43:51;7.10;;;2.90;;
14817;SDS011;7500;57.698;11.986;2023-07-13T03:46:18;10.23;;;3.40;;
14817;SDS011;7500;57.698;11.986;2023-07-13T03:48:46;10.00;;;3.33;;
14817;SDS011;7500;57.698;11.986;2023-07-13T03:51:13;9.13;;;3.30;;
14817;SDS011;7500;57.698;11.986;2023-07-13T03:53:41;8.27;;;3.00;;
14817;SDS011;7500;57.698;11.986;2023-07-13T03:56:09;8.73;;;2.80;;
14817;SDS011;7500;57.698;11.986;2023-07-13T03:58:37;9.87;;;3.10;;
14817;SDS011;7500;57.698;11.986;2023-07-13T04:01:05;9.07;;;3.20;;
14817;SDS011;7500;57.698;11.986;2023-07-13T04:03:32;10.30;;;3.50;;
14817;SDS011;7500;57.698;11.986;2023-07-13T04:05:59;8.80;;;2.87;;
14817;SDS011;7500;57.698;11.986;2023-07-13T04:08:26;9.63;;;3.13;;
14817;SDS011;7500;57.698;11.986;2023-07-13T04:10:53;13.70;;;3.40;;
14817;SDS011;7500;57.698;11.986;2023-07-13T04:13:21;8.77;;;2.80;;
14817;SDS011;7500;57.698;11.986;2023-07-13T04:15:48;5.87;;;2.70;;
14817;SDS011;7500;57.698;11.986;2023-07-13T04:18:14;10.73;;;3.00;;
14817;SDS011;7500;57.698;11.986;2023-07-13T04:20:41;8.43;;;3.20;;
14817;SDS011;7500;57.698;11.986;2023-07-13T04:23:07;8.67;;;2.90;;
14817;SDS011;7500;57.698;11.986;2023-07-13T04:25:34;10.53;;;2.80;;
14817;SDS011;7500;57.698;11.986;2023-07-13T04:28:01;7.70;;;2.90;;
14817;SDS011;7500;57.698;11.986;2023-07-13T04:30:29;6.93;;;2.80;;
14817;SDS011;7500;57.698;11.986;2023-07-13T04:32:55;13.73;;;3.40;;
14817;SDS011;7500;57.698;11.986;2023-07-13T04:35:22;12.23;;;3.10;;
14817;SDS011;7500;57.698;11.986;2023-07-13T04:37:49;8.93;;;3.00;;
14817;SDS011;7500;57.698;11.986;2023-07-13T04:40:16;7.90;;;2.97;;
14817;SDS011;7500;57.698;11.986;2023-07-13T04:42:43;9.00;;;3.07;;
14817;SDS011;7500;57.698;11.986;2023-07-13T04:45:10;8.83;;;2.80;;
14817;SDS011;7500;57.698;11.986;2023-07-13T04:47:38;6.93;;;2.80;;
14817;SDS011;7500;57.698;11.986;2023-07-13T04:50:05;7.83;;;2.80;;
14817;SDS011;7500;57.698;11.986;2023-07-13T04:52:31;7.57;;;2.90;;
14817;SDS011;7500;57.698;11.986;2023-07-13T04:54:58;7.43;;;2.67;;
14817;SDS011;7500;57.698;11.986;2023-07-13T04:57:26;6.90;;;2.53;;
14817;SDS011;7500;57.698;11.986;2023-07-13T04:59:53;7.67;;;2.70;;
14817;SDS011;7500;57.698;11.986;2023-07-13T05:02:20;8.07;;;2.70;;
14817;SDS011;7500;57.698;11.986;2023-07-13T05:04:47;7.40;;;2.67;;
14817;SDS011;7500;57.698;11.986;2023-07-13T05:07:14;7.47;;;2.80;;
14817;SDS011;7500;57.698;11.986;2023-07-13T05:09:41;11.97;;;2.80;;
14817;SDS011;7500;57.698;11.986;2023-07-13T05:12:08;6.80;;;2.33;;
14817;SDS011;7500;57.698;11.986;2023-07-13T05:14:35;7.27;;;2.30;;
14817;SDS011;7500;57.698;11.986;2023-07-13T05:17:01;7.03;;;2.50;;
14817;SDS011;7500;57.698;11.986;2023-07-13T05:19:28;9.63;;;2.73;;
14817;SDS011;7500;57.698;11.986;2023-07-13T05:21:56;11.17;;;2.37;;
14817;SDS011;7500;57.698;11.986;2023-07-13T05:24:22;5.70;;;2.00;;
14817;SDS011;7500;57.698;11.986;2023-07-13T05:26:49;6.87;;;2.50;;
14817;SDS011;7500;57.698;11.986;2023-07-13T05:29:15;4.70;;;1.83;;
14817;SDS011;7500;57.698;11.986;2023-07-13T05:31:42;6.60;;;2.30;;
14817;SDS011;7500;57.698;11.986;2023-07-13T05:34:09;6.50;;;2.40;;
14817;SDS011;7500;57.698;11.986;2023-07-13T05:36:35;7.60;;;2.03;;
14817;SDS011;7500;57.698;11.986;2023-07-13T05:39:04;4.73;;;2.03;;
14817;SDS011;7500;57.698;11.986;2023-07-13T05:41:30;7.57;;;2.13;;
14817;SDS011;7500;57.698;11.986;2023-07-13T05:43:57;7.30;;;2.20;;
14817;SDS011;7500;57.698;11.986;2023-07-13T05:46:25;8.73;;;2.30;;
14817;SDS011;7500;57.698;11.986;2023-07-13T05:48:52;4.13;;;1.90;;
14817;SDS011;7500;57.698;11.986;2023-07-13T05:51:18;5.85;;;2.10;;
14817;SDS011;7500;57.698;11.986;2023-07-13T05:53:45;7.32;;;2.28;;
14817;SDS011;7500;57.698;11.986;2023-07-13T05:56:13;7.78;;;2.30;;
14817;SDS011;7500;57.698;11.986;2023-07-13T05:58:39;6.70;;;2.42;;
14817;SDS011;7500;57.698;11.986;2023-07-13T06:01:08;5.93;;;2.20;;
14817;SDS011;7500;57.698;11.986;2023-07-13T06:03:36;5.80;;;2.53;;
14817;SDS011;7500;57.698;11.986;2023-07-13T06:06:03;10.03;;;2.67;;
14817;SDS011;7500;57.698;11.986;2023-07-13T06:08:30;4.60;;;2.13;;
14817;SDS011;7500;57.698;11.986;2023-07-13T06:11:01;10.37;;;2.70;;
14817;SDS011;7500;57.698;11.986;2023-07-13T06:13:30;6.00;;;2.50;;
14817;SDS011;7500;57.698;11.986;2023-07-13T06:15:56;6.73;;;2.60;;
14817;SDS011;7500;57.698;11.986;2023-07-13T06:18:23;10.93;;;3.13;;
14817;SDS011;7500;57.698;11.986;2023-07-13T06:20:49;7.27;;;2.30;;
14817;SDS011;7500;57.698;11.986;2023-07-13T06:23:16;9.00;;;2.90;;
14817;SDS011;7500;57.698;11.986;2023-07-13T06:25:43;7.13;;;2.43;;
14817;SDS011;7500;57.698;11.986;2023-07-13T06:28:10;5.23;;;2.40;;
14817;SDS011;7500;57.698;11.986;2023-07-13T06:30:39;7.67;;;2.80;;
14817;SDS011;7500;57.698;11.986;2023-07-13T06:33:05;8.50;;;2.80;;
14817;SDS011;7500;57.698;11.986;2023-07-13T06:35:32;8.83;;;2.90;;
14817;SDS011;7500;57.698;11.986;2023-07-13T06:37:59;8.83;;;2.87;;
14817;SDS011;7500;57.698;11.986;2023-07-13T06:40:25;5.17;;;2.60;;
14817;SDS011;7500;57.698;11.986;2023-07-13T06:42:54;7.40;;;2.43;;
14817;SDS011;7500;57.698;11.986;2023-07-13T06:45:20;7.27;;;2.60;;
14817;SDS011;7500;57.698;11.986;2023-07-13T06:47:48;6.97;;;2.87;;
14817;SDS011;7500;57.698;11.986;2023-07-13T06:50:15;7.73;;;2.93;;
14817;SDS011;7500;57.698;11.986;2023-07-13T06:52:42;10.37;;;3.00;;
14817;SDS011;7500;57.698;11.986;2023-07-13T06:55:08;13.53;;;2.70;;
14817;SDS011;7500;57.698;11.986;2023-07-13T06:57:35;5.87;;;2.23;;
14817;SDS011;7500;57.698;11.986;2023-07-13T07:00:02;14.63;;;3.30;;
14817;SDS011;7500;57.698;11.986;2023-07-13T07:02:28;8.50;;;2.70;;
14817;SDS011;7500;57.698;11.986;2023-07-13T07:04:56;11.73;;;3.67;;
14817;SDS011;7500;57.698;11.986;2023-07-13T07:07:23;7.80;;;2.77;;
14817;SDS011;7500;57.698;11.986;2023-07-13T07:09:50;9.23;;;2.70;;
14817;SDS011;7500;57.698;11.986;2023-07-13T07:12:17;9.23;;;2.60;;
14817;SDS011;7500;57.698;11.986;2023-07-13T07:14:43;8.03;;;2.93;;
14817;SDS011;7500;57.698;11.986;2023-07-13T07:17:10;9.33;;;3.07;;
14817;SDS011;7500;57.698;11.986;2023-07-13T07:19:37;9.57;;;2.80;;
14817;SDS011;7500;57.698;11.986;2023-07-13T07:22:05;6.27;;;2.93;;
14817;SDS011;7500;57.698;11.986;2023-07-13T07:24:32;6.77;;;2.40;;
14817;SDS011;7500;57.698;11.986;2023-07-13T07:26:58;5.33;;;2.27;;
14817;SDS011;7500;57.698;11.986;2023-07-13T07:29:25;6.93;;;2.33;;
14817;SDS011;7500;57.698;11.986;2023-07-13T07:31:52;7.87;;;2.27;;
14817;SDS011;7500;57.698;11.986;2023-07-13T07:34:19;7.13;;;2.20;;
14817;SDS011;7500;57.698;11.986;2023-07-13T07:36:46;6.07;;;2.30;;
14817;SDS011;7500;57.698;11.986;2023-07-13T07:39:13;7.03;;;2.90;;
14817;SDS011;7500;57.698;11.986;2023-07-13T07:41:41;9.13;;;2.77;;
14817;SDS011;7500;57.698;11.986;2023-07-13T07:44:08;7.97;;;2.60;;
14817;SDS011;7500;57.698;11.986;2023-07-13T07:46:35;6.70;;;2.80;;
14817;SDS011;7500;57.698;11.986;2023-07-13T07:49:01;8.53;;;2.50;;
14817;SDS011;7500;57.698;11.986;2023-07-13T07:51:28;8.93;;;2.87;;
14817;SDS011;7500;57.698;11.986;2023-07-13T07:53:55;5.43;;;2.10;;
14817;SDS011;7500;57.698;11.986;2023-07-13T07:56:23;5.97;;;2.27;;
14817;SDS011;7500;57.698;11.986;2023-07-13T07:58:49;4.97;;;2.00;;
14817;SDS011;7500;57.698;11.986;2023-07-13T08:01:16;7.40;;;2.40;;
14817;SDS011;7500;57.698;11.986;2023-07-13T08:03:42;5.33;;;1.97;;
14817;SDS011;7500;57.698;11.986;2023-07-13T08:06:09;8.83;;;2.20;;
14817;SDS011;7500;57.698;11.986;2023-07-13T08:08:35;6.10;;;2.30;;
14817;SDS011;7500;57.698;11.986;2023-07-13T08:11:02;4.70;;;2.03;;
14817;SDS011;7500;57.698;11.986;2023-07-13T08:13:30;5.50;;;1.97;;
14817;SDS011;7500;57.698;11.986;2023-07-13T08:15:57;7.33;;;2.13;;
14817;SDS011;7500;57.698;11.986;2023-07-13T08:18:24;4.77;;;1.90;;
14817;SDS011;7500;57.698;11.986;2023-07-13T08:20:50;4.97;;;1.80;;
14817;SDS011;7500;57.698;11.986;2023-07-13T08:23:17;4.93;;;1.93;;
14817;SDS011;7500;57.698;11.986;2023-07-13T08:25:50;4.07;;;1.80;;
14817;SDS011;7500;57.698;11.986;2023-07-13T08:28:16;3.93;;;1.77;;
14817;SDS011;7500;57.698;11.986;2023-07-13T08:30:44;6.60;;;2.20;;
14817;SDS011;7500;57.698;11.986;2023-07-13T08:33:14;5.87;;;2.30;;
14817;SDS011;7500;57.698;11.986;2023-07-13T08:35:40;3.83;;;2.00;;
14817;SDS011;7500;57.698;11.986;2023-07-13T08:38:07;4.30;;;1.70;;
14817;SDS011;7500;57.698;11.986;2023-07-13T08:40:34;5.60;;;1.57;;
14817;SDS011;7500;57.698;11.986;2023-07-13T08:43:00;7.47;;;2.10;;
14817;SDS011;7500;57.698;11.986;2023-07-13T08:45:28;5.60;;;1.90;;
14817;SDS011;7500;57.698;11.986;2023-07-13T08:47:59;6.83;;;2.00;;
14817;SDS011;7500;57.698;11.986;2023-07-13T08:50:27;4.27;;;1.80;;
14817;SDS011;7500;57.698;11.986;2023-07-13T08:52:55;4.40;;;1.87;;
14817;SDS011;7500;57.698;11.986;2023-07-13T08:55:24;2.80;;;1.70;;
14817;SDS011;7500;57.698;11.986;2023-07-13T08:57:56;3.10;;;1.87;;
14817;SDS011;7500;57.698;11.986;2023-07-13T09:00:27;6.77;;;2.03;;
14817;SDS011;7500;57.698;11.986;2023-07-13T09:03:00;3.50;;;2.10;;
14817;SDS011;7500;57.698;11.986;2023-07-13T09:05:29;4.60;;;2.07;;
14817;SDS011;7500;57.698;11.986;2023-07-13T09:08:07;8.23;;;1.80;;
14817;SDS011;7500;57.698;11.986;2023-07-13T09:10:36;5.07;;;2.00;;
14817;SDS011;7500;57.698;11.986;2023-07-13T09:13:11;3.77;;;1.53;;
14817;SDS011;7500;57.698;11.986;2023-07-13T09:15:40;5.87;;;1.80;;
14817;SDS011;7500;57.698;11.986;2023-07-13T09:18:10;5.63;;;1.97;;
14817;SDS011;7500;57.698;11.986;2023-07-13T09:20:39;3.77;;;1.67;;
14817;SDS011;7500;57.698;11.986;2023-07-13T09:23:10;4.80;;;1.73;;
14817;SDS011;7500;57.698;11.986;2023-07-13T09:25:38;7.20;;;1.83;;
14817;SDS011;7500;57.698;11.986;2023-07-13T09:28:08;7.23;;;2.10;;
14817;SDS011;7500;57.698;11.986;2023-07-13T09:30:37;5.43;;;2.00;;
14817;SDS011;7500;57.698;11.986;2023-07-13T09:33:04;5.73;;;2.27;;
14817;SDS011;7500;57.698;11.986;2023-07-13T09:35:34;6.17;;;1.90;;
14817;SDS011;7500;57.698;11.986;2023-07-13T09:38:03;7.07;;;2.47;;
14817;SDS011;7500;57.698;11.986;2023-07-13T09:40:36;5.40;;;2.50;;
14817;SDS011;7500;57.698;11.986;2023-07-13T09:43:05;6.97;;;1.70;;
14817;SDS011;7500;57.698;11.986;2023-07-13T09:45:33;3.63;;;2.30;;
14817;SDS011;7500;57.698;11.986;2023-07-13T09:48:03;5.17;;;1.80;;
14817;SDS011;7500;57.698;11.986;2023-07-13T09:50:30;3.80;;;1.83;;
14817;SDS011;7500;57.698;11.986;2023-07-13T09:52:58;6.13;;;2.30;;
14817;SDS011;7500;57.698;11.986;2023-07-13T09:55:29;3.77;;;2.20;;
14817;SDS011;7500;57.698;11.986;2023-07-13T09:57:56;3.93;;;1.80;;
14817;SDS011;7500;57.698;11.986;2023-07-13T10:00:23;5.43;;;2.10;;
14817;SDS011;7500;57.698;11.986;2023-07-13T10:02:58;5.20;;;2.00;;
14817;SDS011;7500;57.698;11.986;2023-07-13T10:05:25;6.10;;;2.00;;
14817;SDS011;7500;57.698;11.986;2023-07-13T10:07:51;4.23;;;2.00;;
14817;SDS011;7500;57.698;11.986;2023-07-13T10:10:23;5.63;;;2.03;;
14817;SDS011;7500;57.698;11.986;2023-07-13T10:12:50;4.40;;;2.00;;
14817;SDS011;7500;57.698;11.986;2023-07-13T10:15:17;8.83;;;2.50;;
14817;SDS011;7500;57.698;11.986;2023-07-13T10:17:45;4.30;;;2.03;;
14817;SDS011;7500;57.698;11.986;2023-07-13T10:20:12;5.57;;;2.03;;
14817;SDS011;7500;57.698;11.986;2023-07-13T10:22:44;6.17;;;1.93;;
14817;SDS011;7500;57.698;11.986;2023-07-13T10:25:15;5.73;;;1.90;;
14817;SDS011;7500;57.698;11.986;2023-07-13T10:27:45;5.80;;;2.27;;
14817;SDS011;7500;57.698;11.986;2023-07-13T10:30:13;6.03;;;2.40;;
14817;SDS011;7500;57.698;11.986;2023-07-13T10:32:41;3.47;;;1.80;;
14817;SDS011;7500;57.698;11.986;2023-07-13T10:35:09;5.53;;;2.27;;
14817;SDS011;7500;57.698;11.986;2023-07-13T10:37:39;4.47;;;1.77;;
14817;SDS011;7500;57.698;11.986;2023-07-13T10:40:11;5.93;;;2.10;;
14817;SDS011;7500;57.698;11.986;2023-07-13T10:42:39;5.10;;;2.30;;
14817;SDS011;7500;57.698;11.986;2023-07-13T10:45:12;3.30;;;2.00;;
14817;SDS011;7500;57.698;11.986;2023-07-13T10:47:39;5.23;;;1.90;;
14817;SDS011;7500;57.698;11.986;2023-07-13T10:50:08;6.03;;;2.20;;
14817;SDS011;7500;57.698;11.986;2023-07-13T10:52:42;6.20;;;1.83;;
14817;SDS011;7500;57.698;11.986;2023-07-13T10:57:59;4.80;;;1.90;;
14817;SDS011;7500;57.698;11.986;2023-07-13T11:00:30;3.43;;;1.67;;
14817;SDS011;7500;57.698;11.986;2023-07-13T11:02:57;5.50;;;2.00;;
14817;SDS011;7500;57.698;11.986;2023-07-13T11:05:26;3.27;;;1.70;;
14817;SDS011;7500;57.698;11.986;2023-07-13T11:07:55;2.53;;;1.80;;
14817;SDS011;7500;57.698;11.986;2023-07-13T11:13:03;5.03;;;2.07;;
14817;SDS011;7500;57.698;11.986;2023-07-13T11:15:39;5.33;;;2.00;;
14817;SDS011;7500;57.698;11.986;2023-07-13T11:18:19;5.80;;;1.90;;
14817;SDS011;7500;57.698;11.986;2023-07-13T11:20:46;4.33;;;2.00;;
14817;SDS011;7500;57.698;11.986;2023-07-13T11:23:18;4.03;;;1.70;;
14817;SDS011;7500;57.698;11.986;2023-07-13T11:25:45;3.50;;;1.70;;
14817;SDS011;7500;57.698;11.986;2023-07-13T11:28:16;4.67;;;1.60;;
14817;SDS011;7500;57.698;11.986;2023-07-13T11:30:45;3.83;;;1.40;;
14817;SDS011;7500;57.698;11.986;2023-07-13T11:33:20;1.60;;;1.07;;
14817;SDS011;7500;57.698;11.986;2023-07-13T11:35:49;2.73;;;1.17;;
14817;SDS011;7500;57.698;11.986;2023-07-13T11:38:19;3.57;;;1.40;;
14817;SDS011;7500;57.698;11.986;2023-07-13T11:40:47;4.37;;;1.30;;
14817;SDS011;7500;57.698;11.986;2023-07-13T11:43:14;2.57;;;1.37;;
14817;SDS011;7500;57.698;11.986;2023-07-13T11:45:41;3.90;;;1.60;;
14817;SDS011;7500;57.698;11.986;2023-07-13T11:48:23;4.80;;;1.47;;
14817;SDS011;7500;57.698;11.986;2023-07-13T11:50:59;3.90;;;1.37;;
14817;SDS011;7500;57.698;11.986;2023-07-13T11:53:28;3.90;;;1.20;;
14817;SDS011;7500;57.698;11.986;2023-07-13T11:55:55;3.30;;;1.50;;
14817;SDS011;7500;57.698;11.986;2023-07-13T11:58:25;4.47;;;1.60;;
14817;SDS011;7500;57.698;11.986;2023-07-13T12:00:53;4.37;;;1.40;;
14817;SDS011;7500;57.698;11.986;2023-07-13T12:03:23;6.43;;;1.90;;
14817;SDS011;7500;57.698;11.986;2023-07-13T12:05:57;4.70;;;1.70;;
14817;SDS011;7500;57.698;11.986;2023-07-13T12:08:25;4.83;;;1.73;;
14817;SDS011;7500;57.698;11.986;2023-07-13T12:10:59;3.67;;;1.83;;
14817;SDS011;7500;57.698;11.986;2023-07-13T12:13:26;4.90;;;1.47;;
14817;SDS011;7500;57.698;11.986;2023-07-13T12:15:53;4.03;;;1.60;;
14817;SDS011;7500;57.698;11.986;2023-07-13T12:18:20;2.23;;;1.40;;
14817;SDS011;7500;57.698;11.986;2023-07-13T12:20:50;4.27;;;1.50;;
14817;SDS011;7500;57.698;11.986;2023-07-13T12:23:21;3.77;;;1.50;;
14817;SDS011;7500;57.698;11.986;2023-07-13T12:25:49;3.90;;;1.30;;
14817;SDS011;7500;57.698;11.986;2023-07-13T12:28:22;5.47;;;1.47;;
14817;SDS011;7500;57.698;11.986;2023-07-13T12:30:49;4.67;;;1.53;;
14817;SDS011;7500;57.698;11.986;2023-07-13T12:33:16;6.37;;;1.50;;
14817;SDS011;7500;57.698;11.986;2023-07-13T12:35:44;1.90;;;1.10;;
14817;SDS011;7500;57.698;11.986;2023-07-13T12:38:13;1.80;;;1.20;;
14817;SDS011;7500;57.698;11.986;2023-07-13T12:40:40;2.93;;;0.93;;
14817;SDS011;7500;57.698;11.986;2023-07-13T12:43:10;3.90;;;1.00;;
14817;SDS011;7500;57.698;11.986;2023-07-13T12:45:37;1.57;;;0.70;;
14817;SDS011;7500;57.698;11.986;2023-07-13T12:48:05;1.47;;;0.90;;
14817;SDS011;7500;57.698;11.986;2023-07-13T12:50:36;1.33;;;0.60;;
14817;SDS011;7500;57.698;11.986;2023-07-13T12:53:04;1.37;;;0.60;;
14817;SDS011;7500;57.698;11.986;2023-07-13T12:55:39;3.43;;;1.30;;
14817;SDS011;7500;57.698;11.986;2023-07-13T12:58:06;1.43;;;1.30;;
14817;SDS011;7500;57.698;11.986;2023-07-13T13:00:37;4.37;;;1.40;;
14817;SDS011;7500;57.698;11.986;2023-07-13T13:03:05;1.20;;;1.00;;
14817;SDS011;7500;57.698;11.986;2023-07-13T13:05:32;3.37;;;1.00;;
14817;SDS011;7500;57.698;11.986;2023-07-13T13:07:59;3.23;;;1.10;;
14817;SDS011;7500;57.698;11.986;2023-07-13T13:10:26;2.43;;;1.17;;
14817;SDS011;7500;57.698;11.986;2023-07-13T13:12:54;2.30;;;0.90;;
14817;SDS011;7500;57.698;11.986;2023-07-13T13:15:20;6.27;;;1.53;;
14817;SDS011;7500;57.698;11.986;2023-07-13T13:17:48;1.93;;;1.00;;
14817;SDS011;7500;57.698;11.986;2023-07-13T13:20:15;2.83;;;1.40;;
14817;SDS011;7500;57.698;11.986;2023-07-13T13:22:43;3.33;;;1.10;;
14817;SDS011;7500;57.698;11.986;2023-07-13T13:25:10;3.93;;;1.20;;
14817;SDS011;7500;57.698;11.986;2023-07-13T13:27:36;2.77;;;0.90;;
14817;SDS011;7500;57.698;11.986;2023-07-13T13:30:08;6.00;;;1.40;;
14817;SDS011;7500;57.698;11.986;2023-07-13T13:32:35;3.07;;;1.50;;
14817;SDS011;7500;57.698;11.986;2023-07-13T13:35:02;2.40;;;1.10;;
14817;SDS011;7500;57.698;11.986;2023-07-13T13:37:29;6.30;;;1.43;;
14817;SDS011;7500;57.698;11.986;2023-07-13T13:39:55;4.63;;;1.20;;
14817;SDS011;7500;57.698;11.986;2023-07-13T13:42:22;3.77;;;1.30;;
14817;SDS011;7500;57.698;11.986;2023-07-13T13:44:50;2.80;;;1.27;;
14817;SDS011;7500;57.698;11.986;2023-07-13T13:47:24;3.27;;;1.23;;
14817;SDS011;7500;57.698;11.986;2023-07-13T13:49:52;2.70;;;1.00;;
14817;SDS011;7500;57.698;11.986;2023-07-13T13:52:19;3.27;;;1.00;;
14817;SDS011;7500;57.698;11.986;2023-07-13T13:54:46;2.83;;;1.00;;
14817;SDS011;7500;57.698;11.986;2023-07-13T13:57:12;3.80;;;1.33;;
14817;SDS011;7500;57.698;11.986;2023-07-13T13:59:39;3.33;;;1.00;;
14817;SDS011;7500;57.698;11.986;2023-07-13T14:02:09;2.23;;;1.40;;
14817;SDS011;7500;57.698;11.986;2023-07-13T14:04:44;3.87;;;1.17;;
14817;SDS011;7500;57.698;11.986;2023-07-13T14:07:11;2.57;;;1.10;;
14817;SDS011;7500;57.698;11.986;2023-07-13T14:09:37;2.70;;;1.10;;
14817;SDS011;7500;57.698;11.986;2023-07-13T14:12:04;2.67;;;1.30;;
14817;SDS011;7500;57.698;11.986;2023-07-13T14:14:32;2.80;;;1.10;;
14817;SDS011;7500;57.698;11.986;2023-07-13T14:16:59;3.43;;;1.30;;
14817;SDS011;7500;57.698;11.986;2023-07-13T14:19:26;2.47;;;1.10;;
14817;SDS011;7500;57.698;11.986;2023-07-13T14:21:54;4.03;;;1.53;;
14817;SDS011;7500;57.698;11.986;2023-07-13T14:24:20;4.07;;;1.50;;
14817;SDS011;7500;57.698;11.986;2023-07-13T14:26:47;4.40;;;1.20;;
14817;SDS011;7500;57.698;11.986;2023-07-13T14:29:14;2.37;;;1.27;;
14817;SDS011;7500;57.698;11.986;2023-07-13T14:31:42;5.47;;;1.30;;
14817;SDS011;7500;57.698;11.986;2023-07-13T14:34:09;2.03;;;1.07;;
14817;SDS011;7500;57.698;11.986;2023-07-13T14:36:36;3.73;;;1.87;;
14817;SDS011;7500;57.698;11.986;2023-07-13T14:39:10;5.80;;;1.80;;
14817;SDS011;7500;57.698;11.986;2023-07-13T14:41:37;3.10;;;1.80;;
14817;SDS011;7500;57.698;11.986;2023-07-13T14:44:07;4.80;;;2.63;;
14817;SDS011;7500;57.698;11.986;2023-07-13T14:46:35;4.40;;;3.87;;
14817;SDS011;7500;57.698;11.986;2023-07-13T14:49:02;2.43;;;1.73;;
14817;SDS011;7500;57.698;11.986;2023-07-13T14:51:29;6.47;;;3.40;;
14817;SDS011;7500;57.698;11.986;2023-07-13T14:53:56;3.30;;;1.63;;